sensor_id;sensor_type;location;lat;lon;timestamp;P1;durP1;ratioP1;P2;durP2;ratioP2
23561;SDS011;11959;49.418;8.728;2023-07-30T00:01:57;5.60;;;3.92;;
23561;SDS011;11959;49.418;8.728;2023-07-30T00:04:24;4.32;;;3.35;;
23561;SDS011;11959;49.418;8.728;2023-07-30T00:06:50;5.05;;;3.67;;
23561;SDS011;11959;49.418;8.728;2023-07-30T00:09:15;5.47;;;4.38;;
23561;SDS011;11959;49.418;8.728;2023-07-30T00:11:41;5.57;;;4.25;;
23561;SDS011;11959;49.418;8.728;2023-07-30T00:14:07;5.43;;;4.15;;
23561;SDS011;11959;49.418;8.728;2023-07-30T00:16:33;5.65;;;4.28;;
23561;SDS011;11959;49.418;8.728;2023-07-30T00:18:58;5.63;;;4.35;;
23561;SDS011;11959;49.418;8.728;2023-07-30T00:21:24;6.43;;;4.50;;
23561;SDS011;11959;49.418;8.728;2023-07-30T00:23:50;5.47;;;4.10;;
23561;SDS011;11959;49.418;8.728;2023-07-30T00:26:15;5.32;;;4.28;;
23561;SDS011;11959;49.418;8.728;2023-07-30T00:28:41;4.90;;;4.18;;
23561;SDS011;11959;49.418;8.728;2023-07-30T00:31:06;5.20;;;3.90;;
23561;SDS011;11959;49.418;8.728;2023-07-30T00:33:32;4.13;;;3.45;;
23561;SDS011;11959;49.418;8.728;2023-07-30T00:35:58;5.47;;;4.30;;
23561;SDS011;11959;49.418;8.728;2023-07-30T00:38:23;7.70;;;5.63;;
23561;SDS011;11959;49.418;8.728;2023-07-30T00:40:49;7.97;;;5.10;;
23561;SDS011;11959;49.418;8.728;2023-07-30T00:43:15;6.80;;;4.63;;
23561;SDS011;11959;49.418;8.728;2023-07-30T00:45:42;8.77;;;5.05;;
23561;SDS011;11959;49.418;8.728;2023-07-30T00:48:10;6.85;;;4.80;;
23561;SDS011;11959;49.418;8.728;2023-07-30T00:50:36;6.85;;;5.07;;
23561;SDS011;11959;49.418;8.728;2023-07-30T00:53:03;8.95;;;5.03;;
23561;SDS011;11959;49.418;8.728;2023-07-30T00:55:29;5.20;;;4.70;;
23561;SDS011;11959;49.418;8.728;2023-07-30T00:57:56;5.60;;;4.53;;
23561;SDS011;11959;49.418;8.728;2023-07-30T01:00:22;5.80;;;4.80;;
23561;SDS011;11959;49.418;8.728;2023-07-30T01:02:49;5.93;;;4.88;;
23561;SDS011;11959;49.418;8.728;2023-07-30T01:05:16;6.75;;;5.30;;
23561;SDS011;11959;49.418;8.728;2023-07-30T01:07:42;5.43;;;4.93;;
23561;SDS011;11959;49.418;8.728;2023-07-30T01:10:07;6.82;;;4.80;;
23561;SDS011;11959;49.418;8.728;2023-07-30T01:12:33;8.15;;;5.07;;
23561;SDS011;11959;49.418;8.728;2023-07-30T01:15:00;5.22;;;4.72;;
23561;SDS011;11959;49.418;8.728;2023-07-30T01:17:26;5.97;;;4.80;;
23561;SDS011;11959;49.418;8.728;2023-07-30T01:19:52;7.05;;;4.50;;
23561;SDS011;11959;49.418;8.728;2023-07-30T01:22:20;4.53;;;3.92;;
23561;SDS011;11959;49.418;8.728;2023-07-30T01:24:46;6.75;;;4.70;;
23561;SDS011;11959;49.418;8.728;2023-07-30T01:27:14;6.82;;;4.93;;
23561;SDS011;11959;49.418;8.728;2023-07-30T01:29:51;6.57;;;4.30;;
23561;SDS011;11959;49.418;8.728;2023-07-30T01:32:25;5.80;;;4.15;;
23561;SDS011;11959;49.418;8.728;2023-07-30T01:34:53;5.05;;;4.03;;
23561;SDS011;11959;49.418;8.728;2023-07-30T01:37:20;5.22;;;4.15;;
23561;SDS011;11959;49.418;8.728;2023-07-30T01:39:48;5.10;;;4.50;;
23561;SDS011;11959;49.418;8.728;2023-07-30T01:42:14;4.70;;;4.18;;
23561;SDS011;11959;49.418;8.728;2023-07-30T01:44:40;5.60;;;4.10;;
23561;SDS011;11959;49.418;8.728;2023-07-30T01:47:06;3.60;;;3.30;;
23561;SDS011;11959;49.418;8.728;2023-07-30T01:49:32;4.75;;;3.95;;
23561;SDS011;11959;49.418;8.728;2023-07-30T01:51:58;4.88;;;3.80;;
23561;SDS011;11959;49.418;8.728;2023-07-30T01:54:24;4.88;;;4.03;;
23561;SDS011;11959;49.418;8.728;2023-07-30T01:56:49;5.07;;;3.80;;
23561;SDS011;11959;49.418;8.728;2023-07-30T01:59:16;5.18;;;4.18;;
23561;SDS011;11959;49.418;8.728;2023-07-30T02:01:42;4.32;;;3.92;;
23561;SDS011;11959;49.418;8.728;2023-07-30T02:04:08;6.28;;;3.90;;
23561;SDS011;11959;49.418;8.728;2023-07-30T02:06:33;4.45;;;3.88;;
23561;SDS011;11959;49.418;8.728;2023-07-30T02:08:59;4.78;;;3.80;;
23561;SDS011;11959;49.418;8.728;2023-07-30T02:11:25;4.38;;;3.75;;
23561;SDS011;11959;49.418;8.728;2023-07-30T02:13:50;5.20;;;3.90;;
23561;SDS011;11959;49.418;8.728;2023-07-30T02:16:16;5.10;;;3.88;;
23561;SDS011;11959;49.418;8.728;2023-07-30T02:18:42;4.80;;;3.80;;
23561;SDS011;11959;49.418;8.728;2023-07-30T02:21:07;4.15;;;3.75;;
23561;SDS011;11959;49.418;8.728;2023-07-30T02:23:33;4.88;;;3.83;;
23561;SDS011;11959;49.418;8.728;2023-07-30T02:25:59;5.75;;;3.95;;
23561;SDS011;11959;49.418;8.728;2023-07-30T02:28:25;4.45;;;4.00;;
23561;SDS011;11959;49.418;8.728;2023-07-30T02:30:50;4.97;;;3.90;;
23561;SDS011;11959;49.418;8.728;2023-07-30T02:33:16;5.00;;;4.43;;
23561;SDS011;11959;49.418;8.728;2023-07-30T02:35:42;7.72;;;4.93;;
23561;SDS011;11959;49.418;8.728;2023-07-30T02:38:08;5.38;;;4.30;;
23561;SDS011;11959;49.418;8.728;2023-07-30T02:40:34;7.05;;;4.50;;
23561;SDS011;11959;49.418;8.728;2023-07-30T02:43:00;6.80;;;4.65;;
23561;SDS011;11959;49.418;8.728;2023-07-30T02:45:25;6.75;;;4.85;;
23561;SDS011;11959;49.418;8.728;2023-07-30T02:47:51;7.50;;;5.30;;
23561;SDS011;11959;49.418;8.728;2023-07-30T02:50:17;5.63;;;5.10;;
23561;SDS011;11959;49.418;8.728;2023-07-30T02:52:43;9.38;;;5.07;;
23561;SDS011;11959;49.418;8.728;2023-07-30T02:55:08;5.68;;;5.18;;
23561;SDS011;11959;49.418;8.728;2023-07-30T02:57:34;5.32;;;4.80;;
23561;SDS011;11959;49.418;8.728;2023-07-30T03:00:00;6.07;;;5.20;;
23561;SDS011;11959;49.418;8.728;2023-07-30T03:02:26;6.18;;;5.15;;
23561;SDS011;11959;49.418;8.728;2023-07-30T03:04:51;6.78;;;5.57;;
23561;SDS011;11959;49.418;8.728;2023-07-30T03:07:17;8.25;;;5.90;;
23561;SDS011;11959;49.418;8.728;2023-07-30T03:09:44;5.32;;;4.82;;
23561;SDS011;11959;49.418;8.728;2023-07-30T03:12:10;6.07;;;5.03;;
23561;SDS011;11959;49.418;8.728;2023-07-30T03:14:36;7.18;;;5.30;;
23561;SDS011;11959;49.418;8.728;2023-07-30T03:17:01;5.80;;;4.80;;
23561;SDS011;11959;49.418;8.728;2023-07-30T03:19:27;5.15;;;4.55;;
23561;SDS011;11959;49.418;8.728;2023-07-30T03:21:53;5.15;;;4.68;;
23561;SDS011;11959;49.418;8.728;2023-07-30T03:24:19;5.65;;;4.68;;
23561;SDS011;11959;49.418;8.728;2023-07-30T03:26:44;5.63;;;4.53;;
23561;SDS011;11959;49.418;8.728;2023-07-30T03:29:10;5.40;;;4.20;;
23561;SDS011;11959;49.418;8.728;2023-07-30T03:31:36;4.60;;;4.20;;
23561;SDS011;11959;49.418;8.728;2023-07-30T03:34:01;6.57;;;4.50;;
23561;SDS011;11959;49.418;8.728;2023-07-30T03:36:27;6.18;;;4.93;;
23561;SDS011;11959;49.418;8.728;2023-07-30T03:38:52;4.40;;;4.00;;
23561;SDS011;11959;49.418;8.728;2023-07-30T03:41:18;5.10;;;4.60;;
23561;SDS011;11959;49.418;8.728;2023-07-30T03:43:44;5.65;;;4.88;;
23561;SDS011;11959;49.418;8.728;2023-07-30T03:46:09;7.65;;;5.82;;
23561;SDS011;11959;49.418;8.728;2023-07-30T03:48:35;6.00;;;5.35;;
23561;SDS011;11959;49.418;8.728;2023-07-30T03:51:00;6.38;;;5.78;;
23561;SDS011;11959;49.418;8.728;2023-07-30T03:53:27;6.55;;;5.75;;
23561;SDS011;11959;49.418;8.728;2023-07-30T03:55:53;6.53;;;5.18;;
23561;SDS011;11959;49.418;8.728;2023-07-30T03:58:19;7.82;;;5.88;;
23561;SDS011;11959;49.418;8.728;2023-07-30T04:00:44;6.15;;;5.55;;
23561;SDS011;11959;49.418;8.728;2023-07-30T04:03:10;6.10;;;5.50;;
23561;SDS011;11959;49.418;8.728;2023-07-30T04:05:36;7.25;;;5.47;;
23561;SDS011;11959;49.418;8.728;2023-07-30T04:08:01;6.78;;;5.50;;
23561;SDS011;11959;49.418;8.728;2023-07-30T04:10:27;5.85;;;5.25;;
23561;SDS011;11959;49.418;8.728;2023-07-30T04:12:52;7.18;;;5.25;;
23561;SDS011;11959;49.418;8.728;2023-07-30T04:15:18;6.70;;;5.53;;
23561;SDS011;11959;49.418;8.728;2023-07-30T04:17:44;6.05;;;4.85;;
23561;SDS011;11959;49.418;8.728;2023-07-30T04:20:09;7.97;;;6.15;;
23561;SDS011;11959;49.418;8.728;2023-07-30T04:22:35;6.43;;;5.43;;
23561;SDS011;11959;49.418;8.728;2023-07-30T04:25:02;6.72;;;5.43;;
23561;SDS011;11959;49.418;8.728;2023-07-30T04:27:28;6.95;;;5.93;;
23561;SDS011;11959;49.418;8.728;2023-07-30T04:29:54;7.68;;;5.70;;
23561;SDS011;11959;49.418;8.728;2023-07-30T04:32:19;6.93;;;5.50;;
23561;SDS011;11959;49.418;8.728;2023-07-30T04:34:45;5.30;;;4.80;;
23561;SDS011;11959;49.418;8.728;2023-07-30T04:37:11;6.70;;;5.38;;
23561;SDS011;11959;49.418;8.728;2023-07-30T04:39:36;7.75;;;5.78;;
23561;SDS011;11959;49.418;8.728;2023-07-30T04:42:02;7.28;;;6.45;;
23561;SDS011;11959;49.418;8.728;2023-07-30T04:44:28;6.95;;;5.45;;
23561;SDS011;11959;49.418;8.728;2023-07-30T04:46:54;6.70;;;5.72;;
23561;SDS011;11959;49.418;8.728;2023-07-30T04:49:19;6.63;;;5.30;;
23561;SDS011;11959;49.418;8.728;2023-07-30T04:51:45;7.95;;;5.88;;
23561;SDS011;11959;49.418;8.728;2023-07-30T04:54:11;5.95;;;5.35;;
23561;SDS011;11959;49.418;8.728;2023-07-30T04:56:36;7.72;;;5.97;;
23561;SDS011;11959;49.418;8.728;2023-07-30T04:59:02;6.68;;;6.00;;
23561;SDS011;11959;49.418;8.728;2023-07-30T05:01:28;5.60;;;5.05;;
23561;SDS011;11959;49.418;8.728;2023-07-30T05:03:54;6.25;;;5.65;;
23561;SDS011;11959;49.418;8.728;2023-07-30T05:06:20;8.15;;;5.65;;
23561;SDS011;11959;49.418;8.728;2023-07-30T05:08:46;6.38;;;5.50;;
23561;SDS011;11959;49.418;8.728;2023-07-30T05:11:12;6.20;;;5.45;;
23561;SDS011;11959;49.418;8.728;2023-07-30T05:13:37;5.70;;;5.18;;
23561;SDS011;11959;49.418;8.728;2023-07-30T05:16:03;6.47;;;5.78;;
23561;SDS011;11959;49.418;8.728;2023-07-30T05:18:29;5.57;;;5.00;;
23561;SDS011;11959;49.418;8.728;2023-07-30T05:20:54;6.47;;;5.70;;
23561;SDS011;11959;49.418;8.728;2023-07-30T05:23:20;8.07;;;5.15;;
23561;SDS011;11959;49.418;8.728;2023-07-30T05:25:46;5.82;;;5.32;;
23561;SDS011;11959;49.418;8.728;2023-07-30T05:28:12;6.95;;;5.05;;
23561;SDS011;11959;49.418;8.728;2023-07-30T05:30:38;5.03;;;4.53;;
23561;SDS011;11959;49.418;8.728;2023-07-30T05:33:04;5.53;;;3.88;;
23561;SDS011;11959;49.418;8.728;2023-07-30T05:35:29;6.57;;;4.07;;
23561;SDS011;11959;49.418;8.728;2023-07-30T05:37:55;4.47;;;3.60;;
23561;SDS011;11959;49.418;8.728;2023-07-30T05:40:21;3.83;;;3.38;;
23561;SDS011;11959;49.418;8.728;2023-07-30T05:42:47;4.65;;;3.92;;
23561;SDS011;11959;49.418;8.728;2023-07-30T05:45:13;5.20;;;4.35;;
23561;SDS011;11959;49.418;8.728;2023-07-30T05:47:39;5.72;;;4.00;;
23561;SDS011;11959;49.418;8.728;2023-07-30T05:50:06;4.70;;;3.92;;
23561;SDS011;11959;49.418;8.728;2023-07-30T05:52:32;5.35;;;4.00;;
23561;SDS011;11959;49.418;8.728;2023-07-30T05:54:58;4.50;;;3.80;;
23561;SDS011;11959;49.418;8.728;2023-07-30T05:57:24;4.50;;;3.95;;
23561;SDS011;11959;49.418;8.728;2023-07-30T05:59:50;3.90;;;3.45;;
23561;SDS011;11959;49.418;8.728;2023-07-30T06:02:15;5.63;;;3.63;;
23561;SDS011;11959;49.418;8.728;2023-07-30T06:04:41;4.45;;;3.60;;
23561;SDS011;11959;49.418;8.728;2023-07-30T06:07:07;4.63;;;3.35;;
23561;SDS011;11959;49.418;8.728;2023-07-30T06:09:33;6.68;;;3.45;;
23561;SDS011;11959;49.418;8.728;2023-07-30T06:11:58;6.13;;;4.20;;
23561;SDS011;11959;49.418;8.728;2023-07-30T06:14:24;4.10;;;2.88;;
23561;SDS011;11959;49.418;8.728;2023-07-30T06:16:51;4.70;;;3.50;;
23561;SDS011;11959;49.418;8.728;2023-07-30T06:19:16;3.22;;;2.83;;
23561;SDS011;11959;49.418;8.728;2023-07-30T06:21:42;3.20;;;2.90;;
23561;SDS011;11959;49.418;8.728;2023-07-30T06:24:08;4.05;;;3.10;;
23561;SDS011;11959;49.418;8.728;2023-07-30T06:26:34;4.20;;;3.80;;
23561;SDS011;11959;49.418;8.728;2023-07-30T06:29:00;5.45;;;4.10;;
23561;SDS011;11959;49.418;8.728;2023-07-30T06:31:26;4.90;;;4.47;;
23561;SDS011;11959;49.418;8.728;2023-07-30T06:33:51;6.07;;;5.32;;
23561;SDS011;11959;49.418;8.728;2023-07-30T06:36:17;6.40;;;5.82;;
23561;SDS011;11959;49.418;8.728;2023-07-30T06:38:43;6.70;;;6.00;;
23561;SDS011;11959;49.418;8.728;2023-07-30T06:41:08;5.57;;;5.05;;
23561;SDS011;11959;49.418;8.728;2023-07-30T06:43:34;6.20;;;4.85;;
23561;SDS011;11959;49.418;8.728;2023-07-30T06:46:00;5.80;;;5.25;;
23561;SDS011;11959;49.418;8.728;2023-07-30T06:48:25;5.07;;;4.50;;
23561;SDS011;11959;49.418;8.728;2023-07-30T06:50:51;5.15;;;4.65;;
23561;SDS011;11959;49.418;8.728;2023-07-30T06:53:16;5.57;;;5.00;;
23561;SDS011;11959;49.418;8.728;2023-07-30T06:55:42;4.88;;;4.47;;
23561;SDS011;11959;49.418;8.728;2023-07-30T06:58:08;5.32;;;4.20;;
23561;SDS011;11959;49.418;8.728;2023-07-30T07:00:34;5.20;;;4.30;;
23561;SDS011;11959;49.418;8.728;2023-07-30T07:03:00;4.93;;;4.43;;
23561;SDS011;11959;49.418;8.728;2023-07-30T07:05:26;5.47;;;3.88;;
23561;SDS011;11959;49.418;8.728;2023-07-30T07:07:51;7.03;;;4.57;;
23561;SDS011;11959;49.418;8.728;2023-07-30T07:10:17;4.68;;;3.90;;
23561;SDS011;11959;49.418;8.728;2023-07-30T07:12:43;4.85;;;3.97;;
23561;SDS011;11959;49.418;8.728;2023-07-30T07:15:08;4.97;;;3.70;;
23561;SDS011;11959;49.418;8.728;2023-07-30T07:17:34;6.32;;;3.70;;
23561;SDS011;11959;49.418;8.728;2023-07-30T07:20:00;4.47;;;3.60;;
23561;SDS011;11959;49.418;8.728;2023-07-30T07:22:26;4.55;;;4.00;;
23561;SDS011;11959;49.418;8.728;2023-07-30T07:24:52;5.03;;;3.83;;
23561;SDS011;11959;49.418;8.728;2023-07-30T07:27:20;4.78;;;3.38;;
23561;SDS011;11959;49.418;8.728;2023-07-30T07:29:48;4.20;;;3.50;;
23561;SDS011;11959;49.418;8.728;2023-07-30T07:32:13;5.95;;;3.80;;
23561;SDS011;11959;49.418;8.728;2023-07-30T07:34:39;5.40;;;4.28;;
23561;SDS011;11959;49.418;8.728;2023-07-30T07:37:05;4.72;;;4.32;;
23561;SDS011;11959;49.418;8.728;2023-07-30T07:39:32;5.50;;;4.50;;
23561;SDS011;11959;49.418;8.728;2023-07-30T07:41:58;4.95;;;3.80;;
23561;SDS011;11959;49.418;8.728;2023-07-30T07:44:24;4.47;;;3.88;;
23561;SDS011;11959;49.418;8.728;2023-07-30T07:46:49;4.57;;;3.78;;
23561;SDS011;11959;49.418;8.728;2023-07-30T07:49:15;6.03;;;4.28;;
23561;SDS011;11959;49.418;8.728;2023-07-30T07:51:41;5.35;;;4.65;;
23561;SDS011;11959;49.418;8.728;2023-07-30T07:54:06;5.65;;;4.75;;
23561;SDS011;11959;49.418;8.728;2023-07-30T07:56:32;4.88;;;4.38;;
23561;SDS011;11959;49.418;8.728;2023-07-30T07:58:58;4.38;;;3.97;;
23561;SDS011;11959;49.418;8.728;2023-07-30T08:01:23;4.80;;;4.28;;
23561;SDS011;11959;49.418;8.728;2023-07-30T08:03:49;5.10;;;4.60;;
23561;SDS011;11959;49.418;8.728;2023-07-30T08:06:15;5.32;;;4.80;;
23561;SDS011;11959;49.418;8.728;2023-07-30T08:08:41;5.20;;;4.40;;
23561;SDS011;11959;49.418;8.728;2023-07-30T08:11:07;6.30;;;4.90;;
23561;SDS011;11959;49.418;8.728;2023-07-30T08:13:33;6.55;;;5.20;;
23561;SDS011;11959;49.418;8.728;2023-07-30T08:16:00;6.13;;;4.82;;
23561;SDS011;11959;49.418;8.728;2023-07-30T08:18:26;6.05;;;4.53;;
23561;SDS011;11959;49.418;8.728;2023-07-30T08:20:52;6.40;;;4.15;;
23561;SDS011;11959;49.418;8.728;2023-07-30T08:23:18;5.55;;;4.10;;
23561;SDS011;11959;49.418;8.728;2023-07-30T08:25:44;4.63;;;3.88;;
23561;SDS011;11959;49.418;8.728;2023-07-30T08:28:09;4.63;;;4.05;;
23561;SDS011;11959;49.418;8.728;2023-07-30T08:30:35;4.18;;;3.78;;
23561;SDS011;11959;49.418;8.728;2023-07-30T08:33:01;5.85;;;4.10;;
23561;SDS011;11959;49.418;8.728;2023-07-30T08:35:26;4.40;;;3.80;;
23561;SDS011;11959;49.418;8.728;2023-07-30T08:37:53;3.67;;;3.33;;
23561;SDS011;11959;49.418;8.728;2023-07-30T08:40:20;5.45;;;3.80;;
23561;SDS011;11959;49.418;8.728;2023-07-30T08:42:49;4.30;;;3.90;;
23561;SDS011;11959;49.418;8.728;2023-07-30T08:45:15;3.50;;;3.20;;
23561;SDS011;11959;49.418;8.728;2023-07-30T08:47:41;5.00;;;3.45;;
23561;SDS011;11959;49.418;8.728;2023-07-30T08:50:07;4.47;;;3.58;;
23561;SDS011;11959;49.418;8.728;2023-07-30T08:52:33;4.47;;;3.60;;
23561;SDS011;11959;49.418;8.728;2023-07-30T08:55:01;4.43;;;3.63;;
23561;SDS011;11959;49.418;8.728;2023-07-30T08:57:28;3.78;;;3.38;;
23561;SDS011;11959;49.418;8.728;2023-07-30T09:00:10;5.55;;;3.58;;
23561;SDS011;11959;49.418;8.728;2023-07-30T09:02:44;4.65;;;3.20;;
23561;SDS011;11959;49.418;8.728;2023-07-30T09:05:14;3.63;;;3.33;;
23561;SDS011;11959;49.418;8.728;2023-07-30T09:07:40;6.18;;;3.42;;
23561;SDS011;11959;49.418;8.728;2023-07-30T09:10:06;4.53;;;3.00;;
23561;SDS011;11959;49.418;8.728;2023-07-30T09:12:33;3.88;;;3.00;;
23561;SDS011;11959;49.418;8.728;2023-07-30T09:14:59;3.00;;;1.80;;
23561;SDS011;11959;49.418;8.728;2023-07-30T09:17:27;4.20;;;2.30;;
23561;SDS011;11959;49.418;8.728;2023-07-30T09:19:52;2.40;;;1.98;;
23561;SDS011;11959;49.418;8.728;2023-07-30T09:24:56;3.10;;;2.10;;
23561;SDS011;11959;49.418;8.728;2023-07-30T09:27:23;3.33;;;1.95;;
23561;SDS011;11959;49.418;8.728;2023-07-30T09:29:53;2.80;;;2.15;;
23561;SDS011;11959;49.418;8.728;2023-07-30T09:32:26;2.60;;;2.22;;
23561;SDS011;11959;49.418;8.728;2023-07-30T09:34:52;3.90;;;2.45;;
23561;SDS011;11959;49.418;8.728;2023-07-30T09:37:18;3.15;;;2.03;;
23561;SDS011;11959;49.418;8.728;2023-07-30T09:39:44;2.65;;;2.10;;
23561;SDS011;11959;49.418;8.728;2023-07-30T09:42:13;3.75;;;2.05;;
23561;SDS011;11959;49.418;8.728;2023-07-30T09:44:38;4.68;;;2.42;;
23561;SDS011;11959;49.418;8.728;2023-07-30T09:47:05;4.18;;;2.30;;
23561;SDS011;11959;49.418;8.728;2023-07-30T09:49:34;4.30;;;1.98;;
23561;SDS011;11959;49.418;8.728;2023-07-30T09:52:04;2.67;;;2.03;;
23561;SDS011;11959;49.418;8.728;2023-07-30T09:54:30;2.60;;;2.08;;
23561;SDS011;11959;49.418;8.728;2023-07-30T09:56:57;3.58;;;2.08;;
23561;SDS011;11959;49.418;8.728;2023-07-30T09:59:23;3.00;;;2.17;;
23561;SDS011;11959;49.418;8.728;2023-07-30T10:01:49;3.63;;;2.00;;
23561;SDS011;11959;49.418;8.728;2023-07-30T10:04:20;5.35;;;1.92;;
23561;SDS011;11959;49.418;8.728;2023-07-30T10:09:23;2.95;;;2.10;;
23561;SDS011;11959;49.418;8.728;2023-07-30T10:11:53;2.83;;;1.92;;
23561;SDS011;11959;49.418;8.728;2023-07-30T10:14:21;4.05;;;2.00;;
23561;SDS011;11959;49.418;8.728;2023-07-30T10:16:57;2.47;;;2.08;;
23561;SDS011;11959;49.418;8.728;2023-07-30T10:19:25;2.40;;;1.90;;
23561;SDS011;11959;49.418;8.728;2023-07-30T10:21:53;2.85;;;1.88;;
23561;SDS011;11959;49.418;8.728;2023-07-30T10:24:34;2.78;;;1.98;;
23561;SDS011;11959;49.418;8.728;2023-07-30T10:27:05;3.25;;;1.80;;
23561;SDS011;11959;49.418;8.728;2023-07-30T10:29:31;2.42;;;2.00;;
23561;SDS011;11959;49.418;8.728;2023-07-30T10:32:01;3.42;;;1.80;;
23561;SDS011;11959;49.418;8.728;2023-07-30T10:34:42;3.35;;;1.75;;
23561;SDS011;11959;49.418;8.728;2023-07-30T10:37:09;2.13;;;1.60;;
23561;SDS011;11959;49.418;8.728;2023-07-30T10:39:35;2.72;;;1.83;;
23561;SDS011;11959;49.418;8.728;2023-07-30T10:42:01;2.95;;;2.00;;
23561;SDS011;11959;49.418;8.728;2023-07-30T10:44:27;2.85;;;1.30;;
23561;SDS011;11959;49.418;8.728;2023-07-30T10:46:56;2.70;;;1.50;;
23561;SDS011;11959;49.418;8.728;2023-07-30T10:49:24;2.03;;;1.58;;
23561;SDS011;11959;49.418;8.728;2023-07-30T10:51:56;3.22;;;1.95;;
23561;SDS011;11959;49.418;8.728;2023-07-30T10:54:22;2.70;;;1.73;;
23561;SDS011;11959;49.418;8.728;2023-07-30T10:56:49;2.13;;;1.77;;
23561;SDS011;11959;49.418;8.728;2023-07-30T10:59:14;3.28;;;1.80;;
23561;SDS011;11959;49.418;8.728;2023-07-30T11:01:41;2.28;;;1.60;;
23561;SDS011;11959;49.418;8.728;2023-07-30T11:04:15;3.70;;;1.70;;
23561;SDS011;11959;49.418;8.728;2023-07-30T11:06:46;3.97;;;1.80;;
23561;SDS011;11959;49.418;8.728;2023-07-30T11:09:20;3.05;;;1.70;;
23561;SDS011;11959;49.418;8.728;2023-07-30T11:11:51;2.97;;;1.60;;
23561;SDS011;11959;49.418;8.728;2023-07-30T11:14:19;3.05;;;1.58;;
23561;SDS011;11959;49.418;8.728;2023-07-30T11:16:49;3.17;;;1.70;;
23561;SDS011;11959;49.418;8.728;2023-07-30T11:19:17;4.15;;;1.70;;
23561;SDS011;11959;49.418;8.728;2023-07-30T11:21:49;2.22;;;1.50;;
23561;SDS011;11959;49.418;8.728;2023-07-30T11:24:17;2.60;;;1.30;;
23561;SDS011;11959;49.418;8.728;2023-07-30T11:26:43;2.10;;;1.17;;
23561;SDS011;11959;49.418;8.728;2023-07-30T11:29:18;1.45;;;1.10;;
23561;SDS011;11959;49.418;8.728;2023-07-30T11:31:45;2.22;;;1.40;;
23561;SDS011;11959;49.418;8.728;2023-07-30T11:34:12;2.70;;;1.20;;
23561;SDS011;11959;49.418;8.728;2023-07-30T11:36:38;3.88;;;1.45;;
23561;SDS011;11959;49.418;8.728;2023-07-30T11:39:08;2.42;;;1.40;;
23561;SDS011;11959;49.418;8.728;2023-07-30T11:41:35;1.80;;;1.33;;
23561;SDS011;11959;49.418;8.728;2023-07-30T11:44:01;1.80;;;1.17;;
23561;SDS011;11959;49.418;8.728;2023-07-30T11:46:28;3.05;;;1.50;;
23561;SDS011;11959;49.418;8.728;2023-07-30T11:49:10;3.80;;;1.40;;
23561;SDS011;11959;49.418;8.728;2023-07-30T11:51:38;3.70;;;1.40;;
23561;SDS011;11959;49.418;8.728;2023-07-30T11:54:05;2.13;;;1.30;;
23561;SDS011;11959;49.418;8.728;2023-07-30T11:56:31;1.60;;;1.02;;
23561;SDS011;11959;49.418;8.728;2023-07-30T11:58:59;3.33;;;1.13;;
23561;SDS011;11959;49.418;8.728;2023-07-30T12:01:32;1.95;;;1.15;;
23561;SDS011;11959;49.418;8.728;2023-07-30T12:04:00;2.88;;;1.50;;
23561;SDS011;11959;49.418;8.728;2023-07-30T12:06:40;3.95;;;1.48;;
23561;SDS011;11959;49.418;8.728;2023-07-30T12:11:47;3.28;;;1.20;;
23561;SDS011;11959;49.418;8.728;2023-07-30T12:14:15;4.40;;;1.55;;
23561;SDS011;11959;49.418;8.728;2023-07-30T12:16:41;3.85;;;1.70;;
23561;SDS011;11959;49.418;8.728;2023-07-30T12:19:07;4.07;;;1.40;;
23561;SDS011;11959;49.418;8.728;2023-07-30T12:21:33;5.57;;;1.58;;
23561;SDS011;11959;49.418;8.728;2023-07-30T12:23:59;3.72;;;1.30;;
23561;SDS011;11959;49.418;8.728;2023-07-30T12:26:24;2.92;;;1.23;;
23561;SDS011;11959;49.418;8.728;2023-07-30T12:28:50;4.18;;;1.30;;
23561;SDS011;11959;49.418;8.728;2023-07-30T12:31:16;2.72;;;1.20;;
23561;SDS011;11959;49.418;8.728;2023-07-30T12:33:42;4.38;;;1.33;;
23561;SDS011;11959;49.418;8.728;2023-07-30T12:36:08;2.08;;;1.30;;
23561;SDS011;11959;49.418;8.728;2023-07-30T12:38:34;4.55;;;1.85;;
23561;SDS011;11959;49.418;8.728;2023-07-30T12:40:59;3.78;;;1.25;;
23561;SDS011;11959;49.418;8.728;2023-07-30T12:43:25;3.17;;;1.33;;
23561;SDS011;11959;49.418;8.728;2023-07-30T12:45:51;3.10;;;1.33;;
23561;SDS011;11959;49.418;8.728;2023-07-30T12:48:16;3.22;;;1.33;;
23561;SDS011;11959;49.418;8.728;2023-07-30T12:50:42;3.25;;;1.50;;
23561;SDS011;11959;49.418;8.728;2023-07-30T12:53:08;3.67;;;1.50;;
23561;SDS011;11959;49.418;8.728;2023-07-30T12:55:33;6.63;;;1.77;;
23561;SDS011;11959;49.418;8.728;2023-07-30T12:57:59;3.53;;;1.30;;
23561;SDS011;11959;49.418;8.728;2023-07-30T13:00:25;2.72;;;1.38;;
23561;SDS011;11959;49.418;8.728;2023-07-30T13:02:50;2.28;;;1.30;;
23561;SDS011;11959;49.418;8.728;2023-07-30T13:05:21;6.90;;;1.52;;
23561;SDS011;11959;49.418;8.728;2023-07-30T13:07:46;3.25;;;1.70;;
23561;SDS011;11959;49.418;8.728;2023-07-30T13:10:12;3.97;;;1.55;;
23561;SDS011;11959;49.418;8.728;2023-07-30T13:12:38;4.03;;;1.30;;
23561;SDS011;11959;49.418;8.728;2023-07-30T13:15:04;3.50;;;1.55;;
23561;SDS011;11959;49.418;8.728;2023-07-30T13:17:30;4.40;;;2.03;;
23561;SDS011;11959;49.418;8.728;2023-07-30T13:19:56;3.08;;;1.30;;
23561;SDS011;11959;49.418;8.728;2023-07-30T13:22:22;4.18;;;1.50;;
23561;SDS011;11959;49.418;8.728;2023-07-30T13:24:48;4.18;;;1.27;;
23561;SDS011;11959;49.418;8.728;2023-07-30T13:27:13;3.60;;;1.58;;
23561;SDS011;11959;49.418;8.728;2023-07-30T13:29:39;2.95;;;1.40;;
23561;SDS011;11959;49.418;8.728;2023-07-30T13:32:05;3.72;;;1.50;;
23561;SDS011;11959;49.418;8.728;2023-07-30T13:34:31;2.95;;;1.17;;
23561;SDS011;11959;49.418;8.728;2023-07-30T13:36:57;3.22;;;1.35;;
23561;SDS011;11959;49.418;8.728;2023-07-30T13:39:23;5.22;;;1.63;;
23561;SDS011;11959;49.418;8.728;2023-07-30T13:41:48;2.33;;;1.10;;
23561;SDS011;11959;49.418;8.728;2023-07-30T13:44:14;4.28;;;1.80;;
23561;SDS011;11959;49.418;8.728;2023-07-30T13:46:40;4.57;;;1.75;;
23561;SDS011;11959;49.418;8.728;2023-07-30T13:49:06;3.63;;;1.30;;
23561;SDS011;11959;49.418;8.728;2023-07-30T13:51:32;2.95;;;1.30;;
23561;SDS011;11959;49.418;8.728;2023-07-30T13:53:58;3.75;;;1.70;;
23561;SDS011;11959;49.418;8.728;2023-07-30T13:56:25;4.53;;;1.42;;
23561;SDS011;11959;49.418;8.728;2023-07-30T13:58:51;5.28;;;1.65;;
23561;SDS011;11959;49.418;8.728;2023-07-30T14:01:17;4.78;;;1.60;;
23561;SDS011;11959;49.418;8.728;2023-07-30T14:03:43;3.70;;;1.80;;
23561;SDS011;11959;49.418;8.728;2023-07-30T14:06:09;5.35;;;1.90;;
23561;SDS011;11959;49.418;8.728;2023-07-30T14:08:34;3.53;;;1.88;;
23561;SDS011;11959;49.418;8.728;2023-07-30T14:11:00;3.65;;;1.70;;
23561;SDS011;11959;49.418;8.728;2023-07-30T14:13:26;4.25;;;1.35;;
23561;SDS011;11959;49.418;8.728;2023-07-30T14:15:51;3.17;;;1.30;;
23561;SDS011;11959;49.418;8.728;2023-07-30T14:18:17;3.40;;;1.35;;
23561;SDS011;11959;49.418;8.728;2023-07-30T14:20:43;3.70;;;1.58;;
23561;SDS011;11959;49.418;8.728;2023-07-30T14:23:09;4.22;;;1.50;;
23561;SDS011;11959;49.418;8.728;2023-07-30T14:25:35;1.90;;;1.23;;
23561;SDS011;11959;49.418;8.728;2023-07-30T14:28:01;3.17;;;1.45;;
23561;SDS011;11959;49.418;8.728;2023-07-30T14:30:27;3.00;;;1.33;;
23561;SDS011;11959;49.418;8.728;2023-07-30T14:32:52;3.55;;;1.42;;
23561;SDS011;11959;49.418;8.728;2023-07-30T14:35:18;3.85;;;1.50;;
23561;SDS011;11959;49.418;8.728;2023-07-30T14:37:44;6.05;;;1.83;;
23561;SDS011;11959;49.418;8.728;2023-07-30T14:40:10;5.60;;;1.60;;
23561;SDS011;11959;49.418;8.728;2023-07-30T14:42:36;2.92;;;1.33;;
23561;SDS011;11959;49.418;8.728;2023-07-30T14:45:02;2.80;;;1.35;;
23561;SDS011;11959;49.418;8.728;2023-07-30T14:47:28;6.32;;;1.38;;
23561;SDS011;11959;49.418;8.728;2023-07-30T14:49:54;3.70;;;1.30;;
23561;SDS011;11959;49.418;8.728;2023-07-30T14:52:19;4.47;;;1.42;;